createdAt,value
2023-01-20T00:00:44.696Z,13.27
2023-01-20T00:03:02.154Z,17.10
2023-01-20T00:05:21.404Z,15.65
2023-01-20T00:07:38.664Z,15.15
2023-01-20T00:09:55.698Z,14.43
2023-01-20T00:12:12.821Z,14.05
2023-01-20T00:14:29.863Z,13.73
2023-01-20T00:16:46.960Z,16.13
2023-01-20T00:19:05.286Z,16.02
2023-01-20T00:21:22.385Z,16.83
2023-01-20T00:23:41.902Z,18.30
2023-01-20T00:25:59.023Z,18.23
2023-01-20T00:28:18.169Z,16.77
2023-01-20T00:30:35.305Z,16.55
2023-01-20T00:32:52.386Z,13.85
2023-01-20T00:35:09.523Z,13.70
2023-01-20T00:37:27.002Z,19.95
2023-01-20T00:39:48.119Z,14.18
2023-01-20T00:42:05.449Z,17.55
2023-01-20T00:44:22.762Z,15.85
2023-01-20T00:46:40.263Z,15.73
2023-01-20T00:48:58.316Z,16.85
2023-01-20T00:51:15.375Z,17.80
2023-01-20T00:53:32.612Z,14.43
2023-01-20T00:55:55.067Z,12.80
2023-01-20T00:58:12.127Z,13.80
2023-01-20T01:00:29.361Z,15.88
2023-01-20T01:02:46.613Z,13.90
2023-01-20T01:05:03.766Z,13.75
2023-01-20T01:07:21.086Z,12.32
2023-01-20T01:09:38.306Z,14.35
2023-01-20T01:11:55.622Z,14.63
2023-01-20T01:14:12.704Z,18.17
2023-01-20T01:16:29.831Z,14.05
2023-01-20T01:18:47.014Z,19.15
2023-01-20T01:21:04.497Z,14.63
2023-01-20T01:23:21.666Z,15.50
2023-01-20T01:25:38.997Z,17.27
2023-01-20T01:27:56.436Z,13.20
2023-01-20T01:30:13.747Z,15.82
2023-01-20T01:32:32.166Z,12.25
2023-01-20T01:34:51.823Z,12.70
2023-01-20T01:37:09.193Z,15.00
2023-01-20T01:39:26.370Z,15.88
2023-01-20T01:41:44.776Z,17.50
2023-01-20T01:44:03.788Z,16.30
2023-01-20T01:46:21.129Z,15.15
2023-01-20T01:48:38.095Z,14.88
2023-01-20T01:50:55.125Z,13.60
2023-01-20T01:53:12.072Z,15.43
2023-01-20T01:55:30.440Z,14.73
2023-01-20T01:57:47.437Z,14.15
2023-01-20T02:00:07.277Z,14.65
2023-01-20T02:02:25.766Z,15.27
2023-01-20T02:04:43.136Z,16.92
2023-01-20T02:07:00.424Z,13.88
2023-01-20T02:09:20.445Z,13.18
2023-01-20T02:11:38.821Z,17.60
2023-01-20T02:13:57.907Z,12.82
2023-01-20T02:16:15.302Z,16.58
2023-01-20T02:18:33.365Z,13.55
2023-01-20T02:20:50.832Z,16.27
2023-01-20T02:23:08.547Z,13.65
2023-01-20T02:25:26.004Z,16.70
2023-01-20T02:27:45.862Z,15.40
2023-01-20T02:30:02.879Z,13.25
2023-01-20T02:32:19.781Z,13.15
2023-01-20T02:34:36.846Z,12.75
2023-01-20T02:36:55.274Z,12.18
2023-01-20T02:39:12.312Z,13.82
2023-01-20T02:41:44.194Z,18.48
2023-01-20T02:44:01.172Z,16.67
2023-01-20T02:46:18.544Z,13.82
2023-01-20T02:48:35.645Z,13.18
2023-01-20T02:50:52.627Z,13.50
2023-01-20T02:53:09.573Z,14.55
2023-01-20T02:55:26.635Z,13.05
2023-01-20T02:57:43.854Z,11.98
2023-01-20T03:00:01.175Z,11.93
2023-01-20T03:02:18.202Z,13.23
2023-01-20T03:04:38.505Z,14.35
2023-01-20T03:06:55.656Z,12.73
2023-01-20T03:09:13.023Z,11.85
2023-01-20T03:11:30.129Z,11.90
2023-01-20T03:13:47.457Z,13.25
2023-01-20T03:16:08.662Z,12.45
2023-01-20T03:18:25.992Z,13.68
2023-01-20T03:20:44.275Z,13.43
2023-01-20T03:23:01.525Z,15.25
2023-01-20T03:25:19.590Z,11.85
2023-01-20T03:27:36.487Z,12.48
2023-01-20T03:29:53.570Z,12.82
2023-01-20T03:32:10.594Z,12.98
2023-01-20T03:34:30.650Z,12.02
2023-01-20T03:36:48.866Z,15.02
2023-01-20T03:39:06.136Z,12.68
2023-01-20T03:41:23.224Z,14.48
2023-01-20T03:43:41.501Z,13.50
2023-01-20T03:45:59.929Z,12.48
2023-01-20T03:48:16.883Z,16.48
2023-01-20T03:50:34.281Z,15.48
2023-01-20T03:52:51.584Z,13.50
2023-01-20T03:55:08.562Z,12.32
2023-01-20T03:57:26.605Z,11.93
2023-01-20T03:59:43.647Z,12.57
2023-01-20T04:02:00.674Z,12.45
2023-01-20T04:04:17.762Z,13.80
2023-01-20T04:06:35.081Z,15.98
2023-01-20T04:08:52.071Z,10.77
2023-01-20T04:11:09.120Z,14.85
2023-01-20T04:13:26.077Z,11.07
2023-01-20T04:15:43.197Z,11.35
2023-01-20T04:18:01.451Z,13.98
2023-01-20T04:20:18.703Z,14.48
2023-01-20T04:22:35.696Z,11.63
2023-01-20T04:24:53.017Z,12.73
2023-01-20T04:27:09.980Z,12.48
2023-01-20T04:29:27.032Z,13.13
2023-01-20T04:31:45.075Z,14.45
2023-01-20T04:34:02.121Z,13.30
2023-01-20T04:36:19.437Z,14.32
2023-01-20T04:38:36.766Z,14.82
2023-01-20T04:40:53.700Z,12.05
2023-01-20T04:43:10.713Z,14.00
2023-01-20T04:45:27.926Z,15.27
2023-01-20T04:47:45.008Z,15.18
2023-01-20T04:50:01.958Z,12.60
2023-01-20T04:52:19.225Z,14.73
2023-01-20T04:54:36.210Z,10.20
2023-01-20T04:56:53.257Z,14.73
2023-01-20T04:59:10.302Z,13.60
2023-01-20T05:01:27.289Z,13.23
2023-01-20T05:03:45.547Z,13.77
2023-01-20T05:06:02.605Z,15.65
2023-01-20T05:08:19.586Z,13.55
2023-01-20T05:10:36.478Z,14.15
2023-01-20T05:12:53.766Z,12.40
2023-01-20T05:15:11.019Z,13.30
2023-01-20T05:17:28.276Z,14.32
2023-01-20T05:19:45.286Z,15.98
2023-01-20T05:22:02.208Z,14.48
2023-01-20T05:24:19.174Z,14.50
2023-01-20T05:26:36.171Z,11.45
2023-01-20T05:28:54.081Z,12.43
2023-01-20T05:31:11.146Z,13.48
2023-01-20T05:33:29.448Z,12.48
2023-01-20T05:35:46.361Z,11.57
2023-01-20T05:38:03.699Z,13.30
2023-01-20T05:40:20.895Z,12.68
2023-01-20T05:42:37.964Z,12.35
2023-01-20T05:44:54.996Z,11.73
2023-01-20T05:47:12.102Z,12.93
2023-01-20T05:49:29.136Z,12.52
2023-01-20T05:51:46.210Z,13.02
2023-01-20T05:54:03.214Z,13.98
2023-01-20T05:56:20.196Z,11.85
2023-01-20T05:58:38.203Z,17.42
2023-01-20T06:00:55.311Z,12.48
2023-01-20T06:03:12.279Z,13.30
2023-01-20T06:05:29.321Z,13.48
2023-01-20T06:07:46.214Z,12.90
2023-01-20T06:10:03.448Z,12.73
2023-01-20T06:12:20.522Z,14.85
2023-01-20T06:14:37.772Z,13.20
2023-01-20T06:16:54.988Z,14.63
2023-01-20T06:19:12.328Z,13.10
2023-01-20T06:21:29.529Z,13.00
2023-01-20T06:23:46.519Z,13.77
2023-01-20T06:26:03.838Z,16.85
2023-01-20T06:28:21.140Z,16.92
2023-01-20T06:30:38.249Z,14.77
2023-01-20T06:32:55.502Z,19.60
2023-01-20T06:35:12.992Z,18.40
2023-01-20T06:37:30.186Z,16.63
2023-01-20T06:39:48.212Z,15.02
2023-01-20T06:42:05.456Z,17.33
2023-01-20T06:44:22.439Z,18.45
2023-01-20T06:46:39.784Z,17.52
2023-01-20T06:48:58.089Z,18.80
2023-01-20T06:51:15.109Z,22.63
2023-01-20T06:53:33.141Z,25.85
2023-01-20T06:55:52.182Z,26.55
2023-01-20T06:58:10.055Z,28.38
2023-01-20T07:00:27.335Z,23.65
2023-01-20T07:02:44.435Z,21.90
2023-01-20T07:05:01.573Z,26.42
2023-01-20T07:07:18.649Z,25.45
2023-01-20T07:09:35.671Z,20.30
2023-01-20T07:11:52.693Z,27.95
2023-01-20T07:14:09.950Z,29.08
2023-01-20T07:16:27.260Z,22.27
2023-01-20T07:18:44.556Z,20.60
2023-01-20T07:21:01.579Z,23.05
2023-01-20T07:23:18.641Z,23.08
2023-01-20T07:25:36.531Z,20.63
2023-01-20T07:27:53.534Z,19.73
2023-01-20T07:30:10.790Z,19.63
2023-01-20T07:32:29.986Z,16.80
2023-01-20T07:34:49.409Z,18.92
2023-01-20T07:37:07.255Z,19.70
2023-01-20T07:39:24.175Z,20.92
2023-01-20T07:41:41.497Z,18.67
2023-01-20T07:43:58.761Z,19.00
2023-01-20T07:46:15.630Z,19.25
2023-01-20T07:48:33.668Z,16.67
2023-01-20T07:50:50.835Z,18.85
2023-01-20T07:53:08.814Z,19.15
2023-01-20T07:55:26.109Z,16.55
2023-01-20T07:57:43.562Z,17.90
2023-01-20T08:00:00.678Z,18.75
2023-01-20T08:02:17.628Z,19.20
2023-01-20T08:04:35.637Z,19.75
2023-01-20T08:06:52.632Z,26.42
2023-01-20T08:09:09.867Z,28.48
2023-01-20T08:11:27.130Z,28.08
2023-01-20T08:13:44.393Z,26.30
2023-01-20T08:16:01.653Z,23.88
2023-01-20T08:18:19.001Z,19.30
2023-01-20T08:20:36.779Z,22.00
2023-01-20T08:22:53.657Z,22.00
2023-01-20T08:25:10.672Z,18.80
2023-01-20T08:27:28.851Z,20.05
2023-01-20T08:29:46.097Z,20.17
2023-01-20T08:32:03.032Z,19.85
2023-01-20T08:34:20.336Z,19.80
2023-01-20T08:36:38.305Z,20.48
2023-01-20T08:38:55.582Z,17.20
2023-01-20T08:41:12.478Z,18.83
2023-01-20T08:43:29.753Z,18.23
2023-01-20T08:45:46.862Z,19.38
2023-01-20T08:48:03.831Z,17.58
2023-01-20T08:50:21.139Z,15.88
2023-01-20T08:52:38.352Z,17.77
2023-01-20T08:54:55.452Z,22.48
2023-01-20T08:57:12.731Z,20.27
2023-01-20T08:59:29.803Z,22.17
2023-01-20T09:01:46.781Z,19.85
2023-01-20T09:04:06.200Z,20.40
2023-01-20T09:06:24.175Z,18.83
2023-01-20T09:08:41.180Z,18.85
2023-01-20T09:10:58.188Z,20.95
2023-01-20T09:13:15.230Z,21.83
2023-01-20T09:15:32.340Z,19.90
2023-01-20T09:17:50.623Z,20.33
2023-01-20T09:20:07.645Z,22.90
2023-01-20T09:22:24.951Z,20.95
2023-01-20T09:24:41.952Z,20.27
2023-01-20T09:26:58.955Z,24.73
2023-01-20T09:29:15.907Z,20.27
2023-01-20T09:31:32.913Z,19.85
2023-01-20T09:33:50.212Z,19.73
2023-01-20T09:36:07.223Z,18.23
2023-01-20T09:38:24.530Z,17.35
2023-01-20T09:40:41.822Z,18.45
2023-01-20T09:42:59.910Z,19.63
2023-01-20T09:45:17.155Z,17.15
2023-01-20T09:47:34.493Z,19.33
2023-01-20T09:49:52.540Z,20.50
2023-01-20T09:52:09.466Z,22.15
2023-01-20T09:54:27.381Z,20.48
2023-01-20T09:56:44.416Z,21.33
2023-01-20T09:59:01.697Z,22.50
2023-01-20T10:01:18.762Z,16.08
2023-01-20T10:03:37.098Z,20.63
2023-01-20T10:05:54.413Z,17.35
2023-01-20T10:08:11.414Z,26.98
2023-01-20T10:10:28.455Z,15.82
2023-01-20T10:12:46.687Z,17.27
2023-01-20T10:15:03.716Z,17.60
2023-01-20T10:17:20.791Z,13.07
2023-01-20T10:19:37.785Z,18.17
2023-01-20T10:21:54.860Z,35.13
2023-01-20T10:24:11.871Z,104.95
2023-01-20T10:26:28.899Z,69.80
2023-01-20T10:28:45.951Z,31.65
2023-01-20T10:31:03.010Z,15.80
2023-01-20T10:33:21.306Z,13.75
2023-01-20T10:35:38.364Z,17.25
2023-01-20T10:37:55.402Z,18.05
2023-01-20T10:40:12.447Z,19.98
2023-01-20T10:42:29.453Z,18.65
2023-01-20T10:44:46.545Z,17.10
2023-01-20T10:47:03.826Z,16.05
2023-01-20T10:49:20.867Z,12.20
2023-01-20T10:51:37.902Z,11.40
2023-01-20T10:53:56.014Z,10.38
2023-01-20T10:56:12.858Z,10.77
2023-01-20T10:58:29.807Z,15.43
2023-01-20T11:00:46.823Z,15.38
2023-01-20T11:03:03.803Z,18.88
2023-01-20T11:05:21.053Z,16.70
2023-01-20T11:07:38.096Z,11.15
2023-01-20T11:09:55.407Z,11.35
2023-01-20T11:12:13.507Z,10.55
2023-01-20T11:14:30.901Z,19.33
2023-01-20T11:16:48.224Z,24.77
2023-01-20T11:19:05.304Z,24.95
2023-01-20T11:21:22.645Z,32.65
2023-01-20T11:23:39.916Z,37.88
2023-01-20T11:25:57.150Z,23.98
2023-01-20T11:28:14.068Z,15.52
2023-01-20T11:30:31.244Z,16.65
2023-01-20T11:32:48.309Z,40.83
2023-01-20T11:35:05.293Z,31.98
2023-01-20T11:37:22.521Z,17.80
2023-01-20T11:39:39.839Z,13.70
2023-01-20T11:41:56.901Z,9.63
2023-01-20T11:44:14.132Z,10.52
2023-01-20T11:46:31.392Z,8.65
2023-01-20T11:48:48.769Z,11.75
2023-01-20T11:51:06.270Z,8.50
2023-01-20T11:53:23.266Z,14.27
2023-01-20T11:55:40.337Z,9.43
2023-01-20T11:57:57.739Z,17.27
2023-01-20T12:00:16.410Z,11.82
2023-01-20T12:02:34.662Z,19.85
2023-01-20T12:04:51.686Z,11.15
2023-01-20T12:07:08.785Z,17.38
2023-01-20T12:09:25.907Z,12.80
2023-01-20T12:11:43.949Z,10.95
2023-01-20T12:14:01.031Z,11.63
2023-01-20T12:16:19.413Z,11.10
2023-01-20T12:18:36.356Z,10.27
2023-01-20T12:20:55.839Z,7.15
2023-01-20T12:23:13.140Z,9.05
2023-01-20T12:25:30.481Z,10.90
2023-01-20T12:27:47.758Z,12.85
2023-01-20T12:30:04.775Z,12.05
2023-01-20T12:32:21.836Z,12.20
2023-01-20T12:34:39.102Z,12.23
2023-01-20T12:36:56.369Z,16.10
2023-01-20T12:39:13.380Z,20.88
2023-01-20T12:41:30.597Z,16.65
2023-01-20T12:43:47.888Z,16.33
2023-01-20T12:46:07.182Z,13.57
2023-01-20T12:48:24.433Z,11.80
2023-01-20T12:50:41.798Z,18.08
2023-01-20T12:53:00.754Z,14.23
2023-01-20T12:55:18.135Z,15.52
2023-01-20T12:57:35.164Z,13.80
2023-01-20T12:59:52.135Z,15.48
2023-01-20T13:02:09.248Z,14.65
2023-01-20T13:04:28.737Z,19.33
2023-01-20T13:06:46.013Z,16.40
2023-01-20T13:09:03.323Z,20.48
2023-01-20T13:11:20.607Z,14.77
2023-01-20T13:13:51.402Z,15.32
2023-01-20T13:16:13.223Z,15.20
2023-01-20T13:18:30.297Z,18.27
2023-01-20T13:20:47.541Z,23.27
2023-01-20T13:23:05.514Z,22.50
2023-01-20T13:25:22.563Z,20.13
2023-01-20T13:27:42.693Z,21.83
2023-01-20T13:29:59.795Z,21.88
2023-01-20T13:32:17.036Z,19.02
2023-01-20T13:34:34.069Z,20.33
2023-01-20T13:36:52.313Z,21.67
2023-01-20T13:39:09.694Z,18.35
2023-01-20T13:41:26.984Z,23.35
2023-01-20T13:43:44.037Z,19.67
2023-01-20T13:46:00.930Z,19.55
2023-01-20T13:48:18.084Z,19.83
2023-01-20T13:50:35.448Z,20.35
2023-01-20T13:52:52.870Z,20.80
2023-01-20T13:55:10.049Z,19.17
2023-01-20T13:57:27.448Z,18.38
2023-01-20T13:59:44.557Z,18.40
2023-01-20T14:02:01.580Z,21.90
2023-01-20T14:04:18.864Z,19.52
2023-01-20T14:06:38.488Z,19.50
2023-01-20T14:08:55.638Z,19.02
2023-01-20T14:11:13.180Z,19.73
2023-01-20T14:13:30.205Z,25.80
2023-01-20T14:15:47.667Z,20.88
2023-01-20T14:18:05.012Z,20.77
2023-01-20T14:20:22.305Z,20.20
2023-01-20T14:22:39.337Z,19.30
2023-01-20T14:24:56.376Z,18.70
2023-01-20T14:27:13.624Z,18.00
2023-01-20T14:29:30.601Z,18.08
2023-01-20T14:31:47.866Z,17.58
2023-01-20T14:34:04.874Z,17.55
2023-01-20T14:36:22.202Z,16.52
2023-01-20T14:38:51.922Z,18.67
2023-01-20T14:41:13.989Z,16.17
2023-01-20T14:43:31.271Z,17.98
2023-01-20T14:45:49.233Z,18.55
2023-01-20T14:48:06.299Z,16.10
2023-01-20T14:50:23.449Z,18.00
2023-01-20T14:52:40.767Z,16.70
2023-01-20T14:54:58.004Z,15.75
2023-01-20T14:57:15.304Z,17.38
2023-01-20T14:59:32.206Z,14.45
2023-01-20T15:01:49.556Z,15.65
2023-01-20T15:04:07.498Z,12.57
2023-01-20T15:06:24.485Z,11.95
2023-01-20T15:08:41.548Z,13.18
2023-01-20T15:10:58.815Z,13.02
2023-01-20T15:13:15.771Z,13.07
2023-01-20T15:15:32.757Z,12.30
2023-01-20T15:17:50.065Z,9.98
2023-01-20T15:20:07.148Z,10.88
2023-01-20T15:22:24.434Z,10.77
2023-01-20T15:24:41.415Z,10.50
2023-01-20T15:26:58.630Z,9.88
2023-01-20T15:29:15.690Z,11.48
2023-01-20T15:31:32.615Z,10.90
2023-01-20T15:33:49.733Z,11.77
2023-01-20T15:36:06.979Z,11.65
2023-01-20T15:38:24.341Z,10.88
2023-01-20T15:40:41.555Z,10.57
2023-01-20T15:42:58.598Z,9.57
2023-01-20T15:45:15.863Z,11.00
2023-01-20T15:47:32.971Z,10.57
2023-01-20T15:49:50.164Z,10.00
2023-01-20T15:52:07.155Z,11.88
2023-01-20T15:54:25.038Z,11.77
2023-01-20T15:56:42.085Z,14.55
2023-01-20T15:58:59.127Z,13.45
2023-01-20T16:01:16.467Z,14.57
2023-01-20T16:03:33.468Z,13.90
2023-01-20T16:05:51.143Z,14.48
2023-01-20T16:08:08.050Z,14.52
2023-01-20T16:10:25.086Z,15.07
2023-01-20T16:12:42.163Z,15.85
2023-01-20T16:15:00.483Z,14.70
2023-01-20T16:17:17.731Z,14.95
2023-01-20T16:19:34.727Z,15.00
2023-01-20T16:21:55.157Z,17.33
2023-01-20T16:24:12.223Z,17.90
2023-01-20T16:26:29.233Z,15.90
2023-01-20T16:28:46.201Z,15.70
2023-01-20T16:31:03.554Z,16.35
2023-01-20T16:33:20.561Z,17.45
2023-01-20T16:35:37.554Z,17.08
2023-01-20T16:37:54.609Z,16.77
2023-01-20T16:40:12.013Z,19.10
2023-01-20T16:42:29.143Z,16.58
2023-01-20T16:44:49.040Z,19.67
2023-01-20T16:47:08.212Z,16.85
2023-01-20T16:49:25.235Z,18.92
2023-01-20T16:51:42.293Z,16.92
2023-01-20T16:54:00.405Z,18.02
2023-01-20T16:56:18.555Z,18.17
2023-01-20T16:58:35.623Z,18.67
2023-01-20T17:00:52.907Z,16.90
2023-01-20T17:03:09.858Z,17.35
2023-01-20T17:05:27.114Z,17.65
2023-01-20T17:07:44.154Z,16.50
2023-01-20T17:10:02.719Z,15.98
2023-01-20T17:12:20.727Z,17.73
2023-01-20T17:14:37.780Z,16.13
2023-01-20T17:16:54.827Z,17.25
2023-01-20T17:19:12.146Z,16.23
2023-01-20T17:21:29.200Z,16.33
2023-01-20T17:23:46.410Z,15.50
2023-01-20T17:26:03.473Z,17.73
2023-01-20T17:28:20.627Z,16.38
2023-01-20T17:30:38.952Z,15.32
2023-01-20T17:32:57.231Z,14.00
2023-01-20T17:35:15.346Z,15.38
2023-01-20T17:37:32.496Z,15.00
2023-01-20T17:39:49.813Z,16.00
2023-01-20T17:42:06.811Z,14.40
2023-01-20T17:44:24.971Z,14.85
2023-01-20T17:46:41.986Z,15.80
2023-01-20T17:48:58.960Z,14.13
2023-01-20T17:51:16.260Z,15.05
2023-01-20T17:53:33.303Z,13.93
2023-01-20T17:55:53.405Z,14.23
2023-01-20T17:58:14.645Z,14.98
2023-01-20T18:00:32.910Z,14.27
2023-01-20T18:02:50.240Z,14.27
2023-01-20T18:05:07.646Z,13.75
2023-01-20T18:07:26.932Z,13.27
2023-01-20T18:09:44.470Z,18.60
2023-01-20T18:12:01.571Z,15.00
2023-01-20T18:14:18.675Z,13.18
2023-01-20T18:16:36.021Z,12.15
2023-01-20T18:18:54.001Z,14.50
2023-01-20T18:21:11.312Z,15.20
2023-01-20T18:23:29.250Z,12.93
2023-01-20T18:25:46.261Z,13.27
2023-01-20T18:28:04.599Z,13.85
2023-01-20T18:30:21.920Z,14.82
2023-01-20T18:32:39.275Z,13.55
2023-01-20T18:34:56.558Z,13.40
2023-01-20T18:37:14.897Z,13.82
2023-01-20T18:39:32.294Z,14.05
2023-01-20T18:41:51.385Z,16.63
2023-01-20T18:44:08.893Z,12.75
2023-01-20T18:46:27.293Z,14.18
2023-01-20T18:48:44.530Z,13.75
2023-01-20T18:51:01.584Z,16.67
2023-01-20T18:53:19.572Z,15.10
2023-01-20T18:55:36.928Z,15.82
2023-01-20T18:57:55.244Z,15.85
2023-01-20T19:00:12.674Z,13.73
2023-01-20T19:02:30.719Z,15.60
2023-01-20T19:04:48.235Z,12.57
2023-01-20T19:07:05.291Z,12.82
2023-01-20T19:09:22.302Z,13.13
2023-01-20T19:11:42.068Z,14.45
2023-01-20T19:13:59.364Z,15.27
2023-01-20T19:16:16.810Z,15.23
2023-01-20T19:18:36.340Z,15.18
2023-01-20T19:20:53.407Z,14.68
2023-01-20T19:23:11.319Z,14.93
2023-01-20T19:25:28.299Z,14.63
2023-01-20T19:27:45.304Z,12.77
2023-01-20T19:30:02.325Z,13.48
2023-01-20T19:32:19.646Z,14.75
2023-01-20T19:34:36.867Z,12.23
2023-01-20T19:36:54.315Z,14.02
2023-01-20T19:39:11.355Z,12.73
2023-01-20T19:41:28.452Z,13.27
2023-01-20T19:43:45.791Z,13.95
2023-01-20T19:46:03.317Z,13.43
2023-01-20T19:48:20.434Z,14.18
2023-01-20T19:50:37.775Z,12.35
2023-01-20T19:52:55.113Z,13.40
2023-01-20T19:55:13.410Z,15.00
2023-01-20T19:57:30.435Z,13.82
2023-01-20T19:59:47.327Z,15.82
2023-01-20T20:02:04.700Z,18.70
2023-01-20T20:04:22.048Z,13.43
2023-01-20T20:06:39.184Z,14.48
2023-01-20T20:08:56.473Z,12.77
2023-01-20T20:11:13.612Z,13.25
2023-01-20T20:13:30.562Z,14.18
2023-01-20T20:15:47.642Z,14.00
2023-01-20T20:18:04.977Z,14.40
2023-01-20T20:20:22.294Z,15.70
2023-01-20T20:22:39.327Z,13.43
2023-01-20T20:24:56.919Z,14.93
2023-01-20T20:27:14.068Z,13.63
2023-01-20T20:29:31.380Z,13.52
2023-01-20T20:31:48.520Z,14.90
2023-01-20T20:34:05.896Z,13.10
2023-01-20T20:36:25.291Z,12.13
2023-01-20T20:38:43.616Z,12.35
2023-01-20T20:41:01.017Z,12.35
2023-01-20T20:43:18.276Z,11.85
2023-01-20T20:45:35.362Z,13.32
2023-01-20T20:47:52.659Z,12.20
2023-01-20T20:50:10.034Z,12.98
2023-01-20T20:52:27.174Z,12.88
2023-01-20T20:54:44.538Z,11.80
2023-01-20T20:57:02.860Z,12.52
2023-01-20T20:59:19.918Z,15.00
2023-01-20T21:01:37.559Z,14.52
2023-01-20T21:03:55.308Z,12.50
2023-01-20T21:06:12.597Z,14.43
2023-01-20T21:08:29.906Z,14.30
2023-01-20T21:10:47.032Z,14.20
2023-01-20T21:13:04.315Z,13.60
2023-01-20T21:15:21.352Z,16.77
2023-01-20T21:17:38.560Z,13.98
2023-01-20T21:19:55.646Z,13.85
2023-01-20T21:22:13.548Z,14.43
2023-01-20T21:24:30.794Z,12.23
2023-01-20T21:26:48.874Z,14.63
2023-01-20T21:29:05.924Z,15.98
2023-01-20T21:31:24.198Z,15.65
2023-01-20T21:33:41.491Z,18.35
2023-01-20T21:35:59.568Z,16.52
2023-01-20T21:38:16.555Z,16.27
2023-01-20T21:40:34.940Z,18.25
2023-01-20T21:42:53.762Z,16.08
2023-01-20T21:45:11.136Z,16.27
2023-01-20T21:47:29.175Z,14.85
2023-01-20T21:49:46.445Z,13.32
2023-01-20T21:52:04.445Z,12.35
2023-01-20T21:54:21.788Z,11.32
2023-01-20T21:56:40.098Z,14.20
2023-01-20T21:58:59.811Z,12.73
2023-01-20T22:01:17.703Z,14.65
2023-01-20T22:03:34.689Z,12.77
2023-01-20T22:05:52.816Z,14.73
2023-01-20T22:08:09.907Z,12.98
2023-01-20T22:10:28.215Z,14.40
2023-01-20T22:12:46.628Z,12.45
2023-01-20T22:15:03.946Z,13.13
2023-01-20T22:17:21.309Z,13.90
2023-01-20T22:19:39.255Z,13.55
2023-01-20T22:21:56.145Z,14.68
2023-01-20T22:24:14.427Z,25.05
2023-01-20T22:26:31.720Z,16.92
2023-01-20T22:28:49.053Z,10.13
2023-01-20T22:31:06.039Z,13.30
2023-01-20T22:33:23.360Z,8.18
2023-01-20T22:35:43.143Z,8.73
2023-01-20T22:38:00.355Z,8.35
2023-01-20T22:40:17.977Z,9.45
2023-01-20T22:42:35.579Z,8.43
2023-01-20T22:44:52.496Z,9.23
2023-01-20T22:47:09.790Z,9.07
2023-01-20T22:49:27.249Z,9.55
2023-01-20T22:51:44.465Z,8.35
2023-01-20T22:54:01.591Z,9.30
2023-01-20T22:56:18.528Z,9.30
2023-01-20T22:58:35.528Z,8.40
2023-01-20T23:00:52.719Z,7.95
2023-01-20T23:03:09.836Z,9.57
2023-01-20T23:05:26.799Z,8.48
2023-01-20T23:07:46.415Z,9.40
2023-01-20T23:10:03.477Z,8.88
2023-01-20T23:12:21.549Z,10.05
2023-01-20T23:14:39.819Z,9.23
2023-01-20T23:16:56.939Z,10.07
2023-01-20T23:19:13.887Z,9.55
2023-01-20T23:21:31.000Z,9.10
2023-01-20T23:23:48.354Z,9.68
2023-01-20T23:26:05.698Z,8.88
2023-01-20T23:28:23.945Z,8.55
2023-01-20T23:30:43.627Z,8.68
2023-01-20T23:33:01.915Z,9.88
2023-01-20T23:35:19.248Z,8.55
2023-01-20T23:37:37.675Z,9.77
2023-01-20T23:39:54.687Z,8.65
2023-01-20T23:42:11.601Z,9.40
2023-01-20T23:44:30.049Z,9.55
2023-01-20T23:46:48.329Z,9.20
2023-01-20T23:49:05.903Z,9.80
2023-01-20T23:51:23.687Z,10.50
2023-01-20T23:53:41.826Z,11.98
2023-01-20T23:55:58.784Z,11.73
2023-01-20T23:58:15.923Z,12.05
